Ashburn, Virginia
Current Conditions -  °F | °C
As of 2:15 AM on Wednesday 26 Nov 2014 (Local Time) from KJYO Reporting Station
Overcast Overcast  
Wind Chill: 42°   Ceiling: 6500
Heat Index: 45°   Visibility: 10mi
Dew Point: 37°   Wind: 5mph
Humidity: 76%   Direction: 330°NNW
Pressure: 30.13"   Gusts: NA
Location:  39.04°N, 77.48°W
Report Text: KJYO 260715Z AUTO 33004KT 10SM BKN065 BKN075 OVC090 07/03 A3013 RMK AO2
Loading
Personal Weather Stations






























Interactive Weather Map New forecast layout! Learn more

10-Day Weather Forecast

Advertisements
Track Severe Weather on mobile